sensor_id;sensor_type;location;lat;lon;timestamp;P1;durP1;ratioP1;P2;durP2;ratioP2
33579;SDS011;19909;43.644;-79.438;2023-02-18T00:00:26;0.10;;;0.00;;
33579;SDS011;19909;43.644;-79.438;2023-02-18T00:02:53;0.25;;;0.15;;
33579;SDS011;19909;43.644;-79.438;2023-02-18T00:05:20;0.25;;;0.20;;
33579;SDS011;19909;43.644;-79.438;2023-02-18T00:07:46;0.10;;;0.10;;
33579;SDS011;19909;43.644;-79.438;2023-02-18T00:10:13;0.20;;;0.10;;
33579;SDS011;19909;43.644;-79.438;2023-02-18T00:12:40;0.52;;;0.20;;
33579;SDS011;19909;43.644;-79.438;2023-02-18T00:15:06;0.52;;;0.20;;
33579;SDS011;19909;43.644;-79.438;2023-02-18T00:17:34;0.20;;;0.08;;
33579;SDS011;19909;43.644;-79.438;2023-02-18T00:20:00;0.10;;;0.10;;
33579;SDS011;19909;43.644;-79.438;2023-02-18T00:22:26;0.00;;;0.00;;
33579;SDS011;19909;43.644;-79.438;2023-02-18T00:24:53;0.30;;;0.20;;
33579;SDS011;19909;43.644;-79.438;2023-02-18T00:27:19;0.13;;;0.08;;
33579;SDS011;19909;43.644;-79.438;2023-02-18T00:29:45;1.30;;;0.00;;
33579;SDS011;19909;43.644;-79.438;2023-02-18T00:32:11;0.13;;;0.00;;
33579;SDS011;19909;43.644;-79.438;2023-02-18T00:34:37;0.40;;;0.20;;
33579;SDS011;19909;43.644;-79.438;2023-02-18T00:37:03;0.40;;;0.20;;
33579;SDS011;19909;43.644;-79.438;2023-02-18T00:39:30;0.20;;;0.10;;
33579;SDS011;19909;43.644;-79.438;2023-02-18T00:41:56;0.10;;;0.10;;
33579;SDS011;19909;43.644;-79.438;2023-02-18T00:44:22;0.10;;;0.10;;
33579;SDS011;19909;43.644;-79.438;2023-02-18T00:46:48;0.10;;;0.08;;
33579;SDS011;19909;43.644;-79.438;2023-02-18T00:49:15;0.28;;;0.03;;
33579;SDS011;19909;43.644;-79.438;2023-02-18T00:51:42;0.30;;;0.20;;
33579;SDS011;19909;43.644;-79.438;2023-02-18T00:54:08;2.70;;;0.17;;
33579;SDS011;19909;43.644;-79.438;2023-02-18T00:56:34;0.40;;;0.15;;
33579;SDS011;19909;43.644;-79.438;2023-02-18T00:59:00;0.20;;;0.10;;
33579;SDS011;19909;43.644;-79.438;2023-02-18T01:01:27;0.13;;;0.05;;
33579;SDS011;19909;43.644;-79.438;2023-02-18T01:03:53;0.47;;;0.15;;
33579;SDS011;19909;43.644;-79.438;2023-02-18T01:06:20;0.10;;;0.10;;
33579;SDS011;19909;43.644;-79.438;2023-02-18T01:08:49;0.68;;;0.20;;
33579;SDS011;19909;43.644;-79.438;2023-02-18T01:11:15;0.40;;;0.10;;
33579;SDS011;19909;43.644;-79.438;2023-02-18T01:13:41;0.15;;;0.10;;
33579;SDS011;19909;43.644;-79.438;2023-02-18T01:16:08;0.30;;;0.20;;
33579;SDS011;19909;43.644;-79.438;2023-02-18T01:18:35;0.38;;;0.20;;
33579;SDS011;19909;43.644;-79.438;2023-02-18T01:21:01;0.20;;;0.10;;
33579;SDS011;19909;43.644;-79.438;2023-02-18T01:23:29;1.15;;;0.20;;
33579;SDS011;19909;43.644;-79.438;2023-02-18T01:25:56;1.58;;;0.20;;
33579;SDS011;19909;43.644;-79.438;2023-02-18T01:28:23;0.30;;;0.20;;
33579;SDS011;19909;43.644;-79.438;2023-02-18T01:30:50;0.50;;;0.20;;
33579;SDS011;19909;43.644;-79.438;2023-02-18T01:33:17;0.30;;;0.13;;
33579;SDS011;19909;43.644;-79.438;2023-02-18T01:35:44;0.45;;;0.20;;
33579;SDS011;19909;43.644;-79.438;2023-02-18T01:38:11;0.85;;;0.30;;
33579;SDS011;19909;43.644;-79.438;2023-02-18T01:40:43;0.43;;;0.30;;
33579;SDS011;19909;43.644;-79.438;2023-02-18T01:43:16;0.80;;;0.30;;
33579;SDS011;19909;43.644;-79.438;2023-02-18T01:48:24;1.05;;;0.28;;
33579;SDS011;19909;43.644;-79.438;2023-02-18T01:53:58;1.02;;;0.32;;
33579;SDS011;19909;43.644;-79.438;2023-02-18T01:59:30;0.60;;;0.30;;
33579;SDS011;19909;43.644;-79.438;2023-02-18T02:02:10;0.50;;;0.25;;
33579;SDS011;19909;43.644;-79.438;2023-02-18T02:04:39;1.33;;;0.40;;
33579;SDS011;19909;43.644;-79.438;2023-02-18T02:07:06;0.93;;;0.40;;
33579;SDS011;19909;43.644;-79.438;2023-02-18T02:09:33;0.38;;;0.20;;
33579;SDS011;19909;43.644;-79.438;2023-02-18T02:20:34;0.93;;;0.30;;
33579;SDS011;19909;43.644;-79.438;2023-02-18T02:50:51;0.75;;;0.22;;
33579;SDS011;19909;43.644;-79.438;2023-02-18T02:53:26;0.17;;;0.13;;
33579;SDS011;19909;43.644;-79.438;2023-02-18T02:55:54;1.25;;;0.20;;
33579;SDS011;19909;43.644;-79.438;2023-02-18T02:58:21;0.43;;;0.20;;
33579;SDS011;19909;43.644;-79.438;2023-02-18T03:12:04;0.28;;;0.20;;
33579;SDS011;19909;43.644;-79.438;2023-02-18T03:17:16;0.70;;;0.22;;
33579;SDS011;19909;43.644;-79.438;2023-02-18T03:20:06;0.40;;;0.20;;
33579;SDS011;19909;43.644;-79.438;2023-02-18T03:23:00;0.30;;;0.22;;
33579;SDS011;19909;43.644;-79.438;2023-02-18T03:25:30;0.40;;;0.20;;
33579;SDS011;19909;43.644;-79.438;2023-02-18T03:28:02;0.40;;;0.17;;
33579;SDS011;19909;43.644;-79.438;2023-02-18T03:30:41;0.10;;;0.00;;
33579;SDS011;19909;43.644;-79.438;2023-02-18T03:33:13;0.25;;;0.20;;
33579;SDS011;19909;43.644;-79.438;2023-02-18T03:35:43;0.90;;;0.20;;
33579;SDS011;19909;43.644;-79.438;2023-02-18T03:40:48;0.60;;;0.32;;
33579;SDS011;19909;43.644;-79.438;2023-02-18T03:43:15;0.80;;;0.10;;
33579;SDS011;19909;43.644;-79.438;2023-02-18T03:45:41;1.10;;;0.17;;
33579;SDS011;19909;43.644;-79.438;2023-02-18T03:48:08;0.13;;;0.10;;
33579;SDS011;19909;43.644;-79.438;2023-02-18T03:50:34;0.20;;;0.10;;
33579;SDS011;19909;43.644;-79.438;2023-02-18T03:53:00;0.95;;;0.20;;
33579;SDS011;19909;43.644;-79.438;2023-02-18T03:55:26;1.67;;;0.43;;
33579;SDS011;19909;43.644;-79.438;2023-02-18T03:57:52;0.47;;;0.20;;
33579;SDS011;19909;43.644;-79.438;2023-02-18T04:00:19;0.75;;;0.20;;
33579;SDS011;19909;43.644;-79.438;2023-02-18T04:02:45;0.30;;;0.20;;
33579;SDS011;19909;43.644;-79.438;2023-02-18T04:05:12;0.38;;;0.20;;
33579;SDS011;19909;43.644;-79.438;2023-02-18T04:07:39;0.45;;;0.20;;
33579;SDS011;19909;43.644;-79.438;2023-02-18T04:10:05;0.43;;;0.20;;
33579;SDS011;19909;43.644;-79.438;2023-02-18T04:12:32;1.52;;;0.22;;
33579;SDS011;19909;43.644;-79.438;2023-02-18T04:14:59;0.90;;;0.10;;
33579;SDS011;19909;43.644;-79.438;2023-02-18T04:17:25;0.28;;;0.10;;
33579;SDS011;19909;43.644;-79.438;2023-02-18T04:19:51;0.40;;;0.13;;
33579;SDS011;19909;43.644;-79.438;2023-02-18T04:22:17;0.32;;;0.20;;
33579;SDS011;19909;43.644;-79.438;2023-02-18T04:24:44;0.30;;;0.10;;
33579;SDS011;19909;43.644;-79.438;2023-02-18T04:27:11;0.88;;;0.57;;
33579;SDS011;19909;43.644;-79.438;2023-02-18T04:29:37;0.40;;;0.15;;
33579;SDS011;19909;43.644;-79.438;2023-02-18T04:32:03;0.43;;;0.10;;
33579;SDS011;19909;43.644;-79.438;2023-02-18T04:34:30;0.28;;;0.15;;
33579;SDS011;19909;43.644;-79.438;2023-02-18T04:36:57;0.38;;;0.22;;
33579;SDS011;19909;43.644;-79.438;2023-02-18T04:39:23;0.30;;;0.10;;
33579;SDS011;19909;43.644;-79.438;2023-02-18T04:41:50;0.15;;;0.10;;
33579;SDS011;19909;43.644;-79.438;2023-02-18T04:44:16;0.30;;;0.30;;
33579;SDS011;19909;43.644;-79.438;2023-02-18T04:46:42;0.30;;;0.20;;
33579;SDS011;19909;43.644;-79.438;2023-02-18T04:49:08;0.20;;;0.10;;
33579;SDS011;19909;43.644;-79.438;2023-02-18T04:51:34;0.88;;;0.20;;
33579;SDS011;19909;43.644;-79.438;2023-02-18T04:54:02;0.20;;;0.20;;
33579;SDS011;19909;43.644;-79.438;2023-02-18T04:56:28;0.40;;;0.22;;
33579;SDS011;19909;43.644;-79.438;2023-02-18T04:58:54;0.30;;;0.10;;
33579;SDS011;19909;43.644;-79.438;2023-02-18T05:01:21;0.45;;;0.20;;
33579;SDS011;19909;43.644;-79.438;2023-02-18T05:03:47;0.80;;;0.20;;
33579;SDS011;19909;43.644;-79.438;2023-02-18T05:06:13;0.10;;;0.10;;
33579;SDS011;19909;43.644;-79.438;2023-02-18T05:08:39;0.65;;;0.10;;
33579;SDS011;19909;43.644;-79.438;2023-02-18T05:11:09;0.20;;;0.13;;
33579;SDS011;19909;43.644;-79.438;2023-02-18T05:13:35;0.30;;;0.20;;
33579;SDS011;19909;43.644;-79.438;2023-02-18T05:16:01;0.20;;;0.10;;
33579;SDS011;19909;43.644;-79.438;2023-02-18T05:18:28;0.38;;;0.20;;
33579;SDS011;19909;43.644;-79.438;2023-02-18T05:20:54;0.40;;;0.10;;
33579;SDS011;19909;43.644;-79.438;2023-02-18T05:23:20;0.20;;;0.10;;
33579;SDS011;19909;43.644;-79.438;2023-02-18T05:25:46;0.80;;;0.10;;
33579;SDS011;19909;43.644;-79.438;2023-02-18T05:28:12;0.10;;;0.10;;
33579;SDS011;19909;43.644;-79.438;2023-02-18T05:30:38;0.10;;;0.10;;
33579;SDS011;19909;43.644;-79.438;2023-02-18T05:33:05;0.80;;;0.20;;
33579;SDS011;19909;43.644;-79.438;2023-02-18T05:35:31;0.43;;;0.20;;
33579;SDS011;19909;43.644;-79.438;2023-02-18T05:37:57;0.20;;;0.10;;
33579;SDS011;19909;43.644;-79.438;2023-02-18T05:40:23;0.68;;;0.10;;
33579;SDS011;19909;43.644;-79.438;2023-02-18T05:42:49;0.25;;;0.10;;
33579;SDS011;19909;43.644;-79.438;2023-02-18T05:45:16;0.30;;;0.10;;
33579;SDS011;19909;43.644;-79.438;2023-02-18T05:47:42;0.25;;;0.10;;
33579;SDS011;19909;43.644;-79.438;2023-02-18T05:50:08;0.17;;;0.10;;
33579;SDS011;19909;43.644;-79.438;2023-02-18T05:52:34;0.43;;;0.20;;
33579;SDS011;19909;43.644;-79.438;2023-02-18T05:55:01;0.30;;;0.15;;
33579;SDS011;19909;43.644;-79.438;2023-02-18T05:57:27;0.28;;;0.10;;
33579;SDS011;19909;43.644;-79.438;2023-02-18T05:59:53;0.13;;;0.10;;
33579;SDS011;19909;43.644;-79.438;2023-02-18T06:02:19;0.50;;;0.25;;
33579;SDS011;19909;43.644;-79.438;2023-02-18T06:04:46;0.20;;;0.10;;
33579;SDS011;19909;43.644;-79.438;2023-02-18T06:07:12;0.20;;;0.10;;
33579;SDS011;19909;43.644;-79.438;2023-02-18T06:09:38;0.75;;;0.20;;
33579;SDS011;19909;43.644;-79.438;2023-02-18T06:12:04;0.13;;;0.10;;
33579;SDS011;19909;43.644;-79.438;2023-02-18T06:14:31;0.32;;;0.17;;
33579;SDS011;19909;43.644;-79.438;2023-02-18T06:16:57;0.50;;;0.20;;
33579;SDS011;19909;43.644;-79.438;2023-02-18T06:19:23;0.43;;;0.00;;
33579;SDS011;19909;43.644;-79.438;2023-02-18T06:21:49;0.20;;;0.10;;
33579;SDS011;19909;43.644;-79.438;2023-02-18T06:24:16;0.30;;;0.20;;
33579;SDS011;19909;43.644;-79.438;2023-02-18T06:26:42;0.13;;;0.10;;
33579;SDS011;19909;43.644;-79.438;2023-02-18T06:29:08;0.25;;;0.15;;
33579;SDS011;19909;43.644;-79.438;2023-02-18T06:31:34;0.15;;;0.10;;
33579;SDS011;19909;43.644;-79.438;2023-02-18T06:34:00;1.05;;;0.30;;
33579;SDS011;19909;43.644;-79.438;2023-02-18T06:36:27;0.15;;;0.10;;
33579;SDS011;19909;43.644;-79.438;2023-02-18T06:38:53;0.20;;;0.10;;
33579;SDS011;19909;43.644;-79.438;2023-02-18T06:41:21;0.10;;;0.08;;
33579;SDS011;19909;43.644;-79.438;2023-02-18T06:43:47;0.80;;;0.10;;
33579;SDS011;19909;43.644;-79.438;2023-02-18T06:46:14;0.30;;;0.13;;
33579;SDS011;19909;43.644;-79.438;2023-02-18T06:48:40;0.20;;;0.20;;
33579;SDS011;19909;43.644;-79.438;2023-02-18T06:51:06;0.10;;;0.00;;
33579;SDS011;19909;43.644;-79.438;2023-02-18T06:53:32;0.10;;;0.10;;
33579;SDS011;19909;43.644;-79.438;2023-02-18T06:55:59;0.32;;;0.20;;
33579;SDS011;19909;43.644;-79.438;2023-02-18T06:58:25;0.20;;;0.10;;
33579;SDS011;19909;43.644;-79.438;2023-02-18T07:00:51;0.15;;;0.10;;
33579;SDS011;19909;43.644;-79.438;2023-02-18T07:03:17;0.50;;;0.10;;
33579;SDS011;19909;43.644;-79.438;2023-02-18T07:05:44;0.60;;;0.20;;
33579;SDS011;19909;43.644;-79.438;2023-02-18T07:08:10;0.52;;;0.10;;
33579;SDS011;19909;43.644;-79.438;2023-02-18T07:10:37;0.20;;;0.10;;
33579;SDS011;19909;43.644;-79.438;2023-02-18T07:13:03;0.40;;;0.10;;
33579;SDS011;19909;43.644;-79.438;2023-02-18T07:15:30;0.45;;;0.20;;
33579;SDS011;19909;43.644;-79.438;2023-02-18T07:17:56;0.45;;;0.20;;
33579;SDS011;19909;43.644;-79.438;2023-02-18T07:20:23;0.20;;;0.13;;
33579;SDS011;19909;43.644;-79.438;2023-02-18T07:22:50;0.20;;;0.13;;
33579;SDS011;19909;43.644;-79.438;2023-02-18T07:25:16;0.17;;;0.10;;
33579;SDS011;19909;43.644;-79.438;2023-02-18T07:27:43;0.30;;;0.10;;
33579;SDS011;19909;43.644;-79.438;2023-02-18T07:30:09;0.30;;;0.10;;
33579;SDS011;19909;43.644;-79.438;2023-02-18T07:32:36;0.10;;;0.10;;
33579;SDS011;19909;43.644;-79.438;2023-02-18T07:35:03;1.00;;;0.10;;
33579;SDS011;19909;43.644;-79.438;2023-02-18T07:37:30;0.30;;;0.10;;
33579;SDS011;19909;43.644;-79.438;2023-02-18T07:39:57;0.60;;;0.10;;
33579;SDS011;19909;43.644;-79.438;2023-02-18T07:42:23;0.30;;;0.00;;
33579;SDS011;19909;43.644;-79.438;2023-02-18T07:44:49;0.30;;;0.10;;
33579;SDS011;19909;43.644;-79.438;2023-02-18T07:47:16;0.20;;;0.10;;
33579;SDS011;19909;43.644;-79.438;2023-02-18T07:49:44;1.55;;;0.20;;
33579;SDS011;19909;43.644;-79.438;2023-02-18T07:52:11;0.10;;;0.00;;
33579;SDS011;19909;43.644;-79.438;2023-02-18T07:54:38;0.25;;;0.10;;
33579;SDS011;19909;43.644;-79.438;2023-02-18T07:57:04;0.30;;;0.20;;
33579;SDS011;19909;43.644;-79.438;2023-02-18T07:59:30;0.28;;;0.10;;
33579;SDS011;19909;43.644;-79.438;2023-02-18T08:01:57;0.20;;;0.10;;
33579;SDS011;19909;43.644;-79.438;2023-02-18T08:04:23;0.10;;;0.10;;
33579;SDS011;19909;43.644;-79.438;2023-02-18T08:06:49;0.22;;;0.10;;
33579;SDS011;19909;43.644;-79.438;2023-02-18T08:09:16;0.75;;;0.10;;
33579;SDS011;19909;43.644;-79.438;2023-02-18T08:11:42;0.30;;;0.10;;
33579;SDS011;19909;43.644;-79.438;2023-02-18T08:14:09;0.20;;;0.05;;
33579;SDS011;19909;43.644;-79.438;2023-02-18T08:16:35;0.08;;;0.08;;
33579;SDS011;19909;43.644;-79.438;2023-02-18T08:19:01;1.17;;;0.00;;
33579;SDS011;19909;43.644;-79.438;2023-02-18T08:21:28;0.15;;;0.10;;
33579;SDS011;19909;43.644;-79.438;2023-02-18T08:23:56;0.20;;;0.10;;
33579;SDS011;19909;43.644;-79.438;2023-02-18T08:26:23;0.20;;;0.05;;
33579;SDS011;19909;43.644;-79.438;2023-02-18T08:28:49;0.20;;;0.00;;
33579;SDS011;19909;43.644;-79.438;2023-02-18T08:31:26;1.15;;;0.03;;
33579;SDS011;19909;43.644;-79.438;2023-02-18T08:33:54;0.00;;;0.00;;
33579;SDS011;19909;43.644;-79.438;2023-02-18T08:36:21;0.38;;;0.10;;
33579;SDS011;19909;43.644;-79.438;2023-02-18T08:38:48;0.25;;;0.20;;
33579;SDS011;19909;43.644;-79.438;2023-02-18T08:41:14;0.10;;;0.03;;
33579;SDS011;19909;43.644;-79.438;2023-02-18T08:43:42;0.57;;;0.10;;
33579;SDS011;19909;43.644;-79.438;2023-02-18T08:46:09;0.90;;;0.17;;
33579;SDS011;19909;43.644;-79.438;2023-02-18T08:48:36;0.20;;;0.20;;
33579;SDS011;19909;43.644;-79.438;2023-02-18T08:51:16;0.20;;;0.10;;
33579;SDS011;19909;43.644;-79.438;2023-02-18T08:53:44;0.30;;;0.13;;
33579;SDS011;19909;43.644;-79.438;2023-02-18T08:56:11;0.32;;;0.10;;
33579;SDS011;19909;43.644;-79.438;2023-02-18T08:58:39;0.32;;;0.20;;
33579;SDS011;19909;43.644;-79.438;2023-02-18T09:01:07;0.32;;;0.10;;
33579;SDS011;19909;43.644;-79.438;2023-02-18T09:03:35;0.20;;;0.10;;
33579;SDS011;19909;43.644;-79.438;2023-02-18T09:06:02;0.25;;;0.10;;
33579;SDS011;19909;43.644;-79.438;2023-02-18T09:08:28;0.10;;;0.10;;
33579;SDS011;19909;43.644;-79.438;2023-02-18T09:10:56;0.30;;;0.10;;
33579;SDS011;19909;43.644;-79.438;2023-02-18T09:13:23;0.47;;;0.10;;
33579;SDS011;19909;43.644;-79.438;2023-02-18T09:16:00;0.20;;;0.10;;
33579;SDS011;19909;43.644;-79.438;2023-02-18T09:18:47;0.70;;;0.25;;
33579;SDS011;19909;43.644;-79.438;2023-02-18T09:21:14;0.45;;;0.10;;
33579;SDS011;19909;43.644;-79.438;2023-02-18T09:23:43;0.20;;;0.10;;
33579;SDS011;19909;43.644;-79.438;2023-02-18T09:26:10;0.32;;;0.10;;
33579;SDS011;19909;43.644;-79.438;2023-02-18T09:28:38;0.40;;;0.20;;
33579;SDS011;19909;43.644;-79.438;2023-02-18T09:31:05;0.40;;;0.10;;
33579;SDS011;19909;43.644;-79.438;2023-02-18T09:33:34;0.10;;;0.10;;
33579;SDS011;19909;43.644;-79.438;2023-02-18T09:36:01;0.22;;;0.10;;
33579;SDS011;19909;43.644;-79.438;2023-02-18T09:38:28;0.40;;;0.10;;
33579;SDS011;19909;43.644;-79.438;2023-02-18T09:40:54;0.80;;;0.32;;
33579;SDS011;19909;43.644;-79.438;2023-02-18T09:45:53;0.10;;;0.10;;
33579;SDS011;19909;43.644;-79.438;2023-02-18T09:48:25;0.40;;;0.20;;
33579;SDS011;19909;43.644;-79.438;2023-02-18T09:50:54;0.75;;;0.10;;
33579;SDS011;19909;43.644;-79.438;2023-02-18T09:53:22;0.20;;;0.13;;
33579;SDS011;19909;43.644;-79.438;2023-02-18T09:55:53;0.35;;;0.20;;
33579;SDS011;19909;43.644;-79.438;2023-02-18T09:58:25;0.30;;;0.10;;
33579;SDS011;19909;43.644;-79.438;2023-02-18T10:03:40;0.20;;;0.10;;
33579;SDS011;19909;43.644;-79.438;2023-02-18T10:08:47;0.30;;;0.10;;
33579;SDS011;19909;43.644;-79.438;2023-02-18T10:13:56;0.57;;;0.20;;
33579;SDS011;19909;43.644;-79.438;2023-02-18T10:16:25;0.55;;;0.20;;
33579;SDS011;19909;43.644;-79.438;2023-02-18T10:19:35;0.38;;;0.20;;
33579;SDS011;19909;43.644;-79.438;2023-02-18T10:21:46;0.30;;;0.20;;
33579;SDS011;19909;43.644;-79.438;2023-02-18T10:24:22;0.50;;;0.20;;
33579;SDS011;19909;43.644;-79.438;2023-02-18T10:26:50;1.98;;;0.20;;
33579;SDS011;19909;43.644;-79.438;2023-02-18T10:29:18;0.40;;;0.20;;
33579;SDS011;19909;43.644;-79.438;2023-02-18T10:32:31;0.55;;;0.20;;
33579;SDS011;19909;43.644;-79.438;2023-02-18T10:34:53;0.22;;;0.10;;
33579;SDS011;19909;43.644;-79.438;2023-02-18T10:40:34;0.22;;;0.10;;
33579;SDS011;19909;43.644;-79.438;2023-02-18T10:46:40;0.40;;;0.20;;
33579;SDS011;19909;43.644;-79.438;2023-02-18T10:51:56;0.77;;;0.20;;
33579;SDS011;19909;43.644;-79.438;2023-02-18T10:54:27;0.40;;;0.20;;
33579;SDS011;19909;43.644;-79.438;2023-02-18T10:57:19;0.10;;;0.10;;
33579;SDS011;19909;43.644;-79.438;2023-02-18T11:00:34;0.32;;;0.20;;
33579;SDS011;19909;43.644;-79.438;2023-02-18T11:02:37;0.20;;;0.20;;
33579;SDS011;19909;43.644;-79.438;2023-02-18T11:05:25;0.20;;;0.13;;
33579;SDS011;19909;43.644;-79.438;2023-02-18T11:08:00;0.28;;;0.20;;
33579;SDS011;19909;43.644;-79.438;2023-02-18T11:10:31;0.30;;;0.15;;
33579;SDS011;19909;43.644;-79.438;2023-02-18T11:13:07;0.20;;;0.20;;
33579;SDS011;19909;43.644;-79.438;2023-02-18T11:15:35;0.20;;;0.20;;
33579;SDS011;19909;43.644;-79.438;2023-02-18T11:21:02;0.43;;;0.30;;
33579;SDS011;19909;43.644;-79.438;2023-02-18T11:23:30;0.85;;;0.20;;
33579;SDS011;19909;43.644;-79.438;2023-02-18T11:26:10;0.20;;;0.17;;
33579;SDS011;19909;43.644;-79.438;2023-02-18T11:28:40;0.30;;;0.20;;
33579;SDS011;19909;43.644;-79.438;2023-02-18T11:31:07;0.55;;;0.22;;
33579;SDS011;19909;43.644;-79.438;2023-02-18T11:36:17;1.58;;;0.30;;
33579;SDS011;19909;43.644;-79.438;2023-02-18T11:38:45;0.45;;;0.25;;
33579;SDS011;19909;43.644;-79.438;2023-02-18T11:41:36;0.30;;;0.10;;
33579;SDS011;19909;43.644;-79.438;2023-02-18T11:44:06;0.70;;;0.47;;
33579;SDS011;19909;43.644;-79.438;2023-02-18T11:46:57;0.30;;;0.15;;
33579;SDS011;19909;43.644;-79.438;2023-02-18T11:49:26;0.50;;;0.20;;
33579;SDS011;19909;43.644;-79.438;2023-02-18T11:51:54;0.57;;;0.30;;
33579;SDS011;19909;43.644;-79.438;2023-02-18T11:54:29;0.40;;;0.20;;
33579;SDS011;19909;43.644;-79.438;2023-02-18T11:59:25;0.40;;;0.20;;
33579;SDS011;19909;43.644;-79.438;2023-02-18T12:01:56;0.30;;;0.20;;
33579;SDS011;19909;43.644;-79.438;2023-02-18T12:04:42;0.60;;;0.30;;
33579;SDS011;19909;43.644;-79.438;2023-02-18T12:07:41;0.20;;;0.20;;
33579;SDS011;19909;43.644;-79.438;2023-02-18T12:10:25;0.45;;;0.20;;
33579;SDS011;19909;43.644;-79.438;2023-02-18T12:18:42;0.30;;;0.15;;
33579;SDS011;19909;43.644;-79.438;2023-02-18T12:27:15;0.20;;;0.10;;
33579;SDS011;19909;43.644;-79.438;2023-02-18T12:37:48;0.30;;;0.20;;
33579;SDS011;19909;43.644;-79.438;2023-02-18T13:05:37;0.30;;;0.20;;
33579;SDS011;19909;43.644;-79.438;2023-02-18T13:14:15;0.40;;;0.40;;
33579;SDS011;19909;43.644;-79.438;2023-02-18T13:16:50;0.40;;;0.30;;
33579;SDS011;19909;43.644;-79.438;2023-02-18T13:21:48;0.28;;;0.20;;
33579;SDS011;19909;43.644;-79.438;2023-02-18T13:24:26;0.22;;;0.20;;
33579;SDS011;19909;43.644;-79.438;2023-02-18T13:32:53;1.02;;;0.30;;
33579;SDS011;19909;43.644;-79.438;2023-02-18T13:35:40;0.57;;;0.28;;
33579;SDS011;19909;43.644;-79.438;2023-02-18T13:41:00;0.40;;;0.30;;
33579;SDS011;19909;43.644;-79.438;2023-02-18T13:51:27;0.60;;;0.45;;
33579;SDS011;19909;43.644;-79.438;2023-02-18T13:53:59;0.50;;;0.32;;
33579;SDS011;19909;43.644;-79.438;2023-02-18T13:56:31;0.73;;;0.30;;
33579;SDS011;19909;43.644;-79.438;2023-02-18T14:01:48;0.68;;;0.20;;
33579;SDS011;19909;43.644;-79.438;2023-02-18T14:09:57;0.93;;;0.30;;
33579;SDS011;19909;43.644;-79.438;2023-02-18T14:12:33;0.75;;;0.30;;
33579;SDS011;19909;43.644;-79.438;2023-02-18T14:17:42;0.73;;;0.40;;
33579;SDS011;19909;43.644;-79.438;2023-02-18T14:23:12;0.28;;;0.22;;
33579;SDS011;19909;43.644;-79.438;2023-02-18T14:26:07;0.40;;;0.22;;
33579;SDS011;19909;43.644;-79.438;2023-02-18T14:31:04;0.73;;;0.40;;
33579;SDS011;19909;43.644;-79.438;2023-02-18T14:33:38;0.50;;;0.30;;
33579;SDS011;19909;43.644;-79.438;2023-02-18T14:39:01;0.65;;;0.30;;
33579;SDS011;19909;43.644;-79.438;2023-02-18T14:41:40;0.20;;;0.20;;
33579;SDS011;19909;43.644;-79.438;2023-02-18T14:50:12;0.40;;;0.30;;
33579;SDS011;19909;43.644;-79.438;2023-02-18T14:52:42;1.58;;;0.30;;
33579;SDS011;19909;43.644;-79.438;2023-02-18T14:55:22;0.10;;;0.10;;
33579;SDS011;19909;43.644;-79.438;2023-02-18T15:00:38;0.47;;;0.25;;
33579;SDS011;19909;43.644;-79.438;2023-02-18T15:03:16;0.15;;;0.10;;
33579;SDS011;19909;43.644;-79.438;2023-02-18T15:05:44;0.40;;;0.20;;
33579;SDS011;19909;43.644;-79.438;2023-02-18T15:08:18;1.38;;;0.32;;
33579;SDS011;19909;43.644;-79.438;2023-02-18T15:10:55;0.63;;;0.30;;
33579;SDS011;19909;43.644;-79.438;2023-02-18T15:13:26;0.22;;;0.13;;
33579;SDS011;19909;43.644;-79.438;2023-02-18T15:16:07;0.63;;;0.30;;
33579;SDS011;19909;43.644;-79.438;2023-02-18T15:18:52;0.68;;;0.40;;
33579;SDS011;19909;43.644;-79.438;2023-02-18T15:21:31;0.50;;;0.40;;
33579;SDS011;19909;43.644;-79.438;2023-02-18T15:24:06;0.47;;;0.30;;
33579;SDS011;19909;43.644;-79.438;2023-02-18T15:26:35;0.60;;;0.30;;
33579;SDS011;19909;43.644;-79.438;2023-02-18T15:31:45;0.95;;;0.30;;
33579;SDS011;19909;43.644;-79.438;2023-02-18T15:34:56;0.70;;;0.38;;
33579;SDS011;19909;43.644;-79.438;2023-02-18T15:37:04;0.47;;;0.20;;
33579;SDS011;19909;43.644;-79.438;2023-02-18T15:39:34;0.30;;;0.20;;
33579;SDS011;19909;43.644;-79.438;2023-02-18T15:45:00;0.70;;;0.30;;
33579;SDS011;19909;43.644;-79.438;2023-02-18T15:47:29;0.63;;;0.30;;
33579;SDS011;19909;43.644;-79.438;2023-02-18T15:49:57;0.47;;;0.20;;
33579;SDS011;19909;43.644;-79.438;2023-02-18T15:52:26;0.22;;;0.20;;
33579;SDS011;19909;43.644;-79.438;2023-02-18T15:55:02;0.67;;;0.30;;
33579;SDS011;19909;43.644;-79.438;2023-02-18T15:57:32;0.82;;;0.40;;
33579;SDS011;19909;43.644;-79.438;2023-02-18T16:00:04;0.95;;;0.30;;
33579;SDS011;19909;43.644;-79.438;2023-02-18T16:02:53;1.80;;;0.10;;
33579;SDS011;19909;43.644;-79.438;2023-02-18T16:05:25;0.22;;;0.15;;
33579;SDS011;19909;43.644;-79.438;2023-02-18T16:08:26;0.50;;;0.40;;
33579;SDS011;19909;43.644;-79.438;2023-02-18T16:11:09;0.45;;;0.22;;
33579;SDS011;19909;43.644;-79.438;2023-02-18T16:13:43;0.47;;;0.20;;
33579;SDS011;19909;43.644;-79.438;2023-02-18T16:16:28;0.50;;;0.20;;
33579;SDS011;19909;43.644;-79.438;2023-02-18T16:18:57;0.85;;;0.40;;
33579;SDS011;19909;43.644;-79.438;2023-02-18T16:21:29;0.43;;;0.28;;
33579;SDS011;19909;43.644;-79.438;2023-02-18T16:24:01;2.10;;;0.50;;
33579;SDS011;19909;43.644;-79.438;2023-02-18T16:26:43;0.57;;;0.40;;
33579;SDS011;19909;43.644;-79.438;2023-02-18T16:29:15;0.50;;;0.30;;
33579;SDS011;19909;43.644;-79.438;2023-02-18T16:31:49;0.25;;;0.20;;
33579;SDS011;19909;43.644;-79.438;2023-02-18T16:34:16;0.73;;;0.50;;
33579;SDS011;19909;43.644;-79.438;2023-02-18T16:36:43;0.90;;;0.50;;
33579;SDS011;19909;43.644;-79.438;2023-02-18T16:39:28;3.00;;;0.40;;
33579;SDS011;19909;43.644;-79.438;2023-02-18T16:41:57;0.88;;;0.35;;
33579;SDS011;19909;43.644;-79.438;2023-02-18T16:44:23;0.90;;;0.60;;
33579;SDS011;19909;43.644;-79.438;2023-02-18T16:46:50;0.80;;;0.60;;
33579;SDS011;19909;43.644;-79.438;2023-02-18T16:49:16;1.35;;;0.60;;
33579;SDS011;19909;43.644;-79.438;2023-02-18T16:51:44;2.72;;;0.47;;
33579;SDS011;19909;43.644;-79.438;2023-02-18T16:54:11;1.30;;;0.63;;
33579;SDS011;19909;43.644;-79.438;2023-02-18T16:56:37;0.73;;;0.50;;
33579;SDS011;19909;43.644;-79.438;2023-02-18T16:59:04;1.27;;;0.32;;
33579;SDS011;19909;43.644;-79.438;2023-02-18T17:01:32;1.00;;;0.68;;
33579;SDS011;19909;43.644;-79.438;2023-02-18T17:04:05;0.70;;;0.30;;
33579;SDS011;19909;43.644;-79.438;2023-02-18T17:06:35;0.93;;;0.65;;
33579;SDS011;19909;43.644;-79.438;2023-02-18T17:09:01;1.30;;;0.35;;
33579;SDS011;19909;43.644;-79.438;2023-02-18T17:11:42;0.55;;;0.40;;
33579;SDS011;19909;43.644;-79.438;2023-02-18T17:14:12;1.13;;;0.50;;
33579;SDS011;19909;43.644;-79.438;2023-02-18T17:16:45;0.88;;;0.32;;
33579;SDS011;19909;43.644;-79.438;2023-02-18T17:19:13;1.38;;;0.55;;
33579;SDS011;19909;43.644;-79.438;2023-02-18T17:21:40;0.90;;;0.47;;
33579;SDS011;19909;43.644;-79.438;2023-02-18T17:24:11;0.70;;;0.40;;
33579;SDS011;19909;43.644;-79.438;2023-02-18T17:26:38;0.93;;;0.50;;
33579;SDS011;19909;43.644;-79.438;2023-02-18T17:29:05;0.32;;;0.25;;
33579;SDS011;19909;43.644;-79.438;2023-02-18T17:31:41;2.22;;;0.47;;
33579;SDS011;19909;43.644;-79.438;2023-02-18T17:34:13;0.43;;;0.30;;
33579;SDS011;19909;43.644;-79.438;2023-02-18T17:36:45;0.30;;;0.25;;
33579;SDS011;19909;43.644;-79.438;2023-02-18T17:39:12;0.75;;;0.50;;
33579;SDS011;19909;43.644;-79.438;2023-02-18T17:41:41;1.13;;;0.45;;
33579;SDS011;19909;43.644;-79.438;2023-02-18T17:44:11;2.58;;;0.45;;
33579;SDS011;19909;43.644;-79.438;2023-02-18T17:46:39;0.60;;;0.40;;
33579;SDS011;19909;43.644;-79.438;2023-02-18T17:49:06;0.90;;;0.30;;